Time;durP1;ratioP1;P1;durP2;ratioP2;P2;SDS_P1;SDS_P2;PMS_P1;PMS_P2;Temp;Humidity;BMP_temperature;BMP_pressure;BME280_temperature;BME280_humidity;BME280_pressure;Samples;Min_cycle;Max_cycle;Signal;HPM_P1;HPM_P2
2022/06/05 00:04:11;;;;;;;22.47;19.07;;;;;;;10.69;100.00;97075.78;10327784;28;20229;-51
2022/06/05 00:09:20;;;;;;;22.67;19.47;;;;;;;10.75;100.00;97076.97;10327587;28;20606;-51
2022/06/05 00:14:21;;;;;;;24.77;21.97;;;;;;;10.65;100.00;97075.22;10327855;28;20224;-51
2022/06/05 00:19:21;;;;;;;23.60;19.80;;;;;;;10.58;100.00;97079.44;10327324;28;20220;-53
2022/06/05 00:24:21;;;;;;;23.43;21.03;;;;;;;10.52;100.00;97083.47;10327413;28;20793;-52
2022/06/05 00:29:56;;;;;;;22.93;20.53;;;;;;;10.59;100.00;97081.06;10326943;28;20590;-51
2022/06/05 00:34:56;;;;;;;21.83;19.53;;;;;;;10.51;100.00;97078.38;10327210;28;20190;-54
2022/06/05 00:40:08;;;;;;;23.50;19.43;;;;;;;10.56;100.00;97077.94;10326292;28;20209;-55
2022/06/05 00:45:11;;;;;;;24.93;20.60;;;;;;;10.52;100.00;97082.63;10326631;28;20226;-53
2022/06/05 00:50:22;;;;;;;25.20;21.57;;;;;;;10.46;100.00;97076.19;10325468;28;20736;-51
2022/06/05 00:55:24;;;;;;;21.87;19.57;;;;;;;10.43;100.00;97093.97;10325346;28;20233;-51
2022/06/05 01:00:29;;;;;;;22.43;20.10;;;;;;;10.31;100.00;97080.25;10325373;28;20236;-53
2022/06/05 01:05:29;;;;;;;23.80;21.23;;;;;;;10.25;100.00;97081.63;10324614;28;20229;-56
2022/06/05 01:10:43;;;;;;;22.60;19.77;;;;;;;10.23;100.00;97067.88;10326268;28;20220;-51
2022/06/05 01:15:55;;;;;;;24.23;21.60;;;;;;;10.30;100.00;97073.34;10331684;28;20213;-52
2022/06/05 01:21:08;;;;;;;22.57;20.17;;;;;;;10.30;100.00;97073.34;10334425;28;20197;-53
2022/06/05 01:26:26;;;;;;;24.90;22.33;;;;;;;10.40;100.00;97068.91;10333620;28;20648;-55
2022/06/05 01:31:38;;;;;;;26.30;23.57;;;;;;;10.39;100.00;97061.22;10332802;28;20197;-52
2022/06/05 01:37:03;;;;;;;25.67;22.17;;;;;;;10.31;100.00;97070.56;10333538;28;20300;-52
2022/06/05 01:42:10;;;;;;;28.37;22.37;;;;;;;10.28;100.00;97064.81;10327632;28;20234;-53
2022/06/05 01:47:15;;;;;;;22.93;20.57;;;;;;;10.30;100.00;97070.72;10331914;28;20246;-54
2022/06/05 01:52:20;;;;;;;29.97;26.97;;;;;;;10.31;100.00;97059.28;10333305;28;20273;-52
2022/06/05 01:57:22;;;;;;;27.97;21.80;;;;;;;10.24;100.00;97050.34;10332338;28;20300;-52
2022/06/05 02:02:27;;;;;;;24.53;21.50;;;;;;;10.16;100.00;97049.28;10348015;28;20696;-58
2022/06/05 02:07:38;;;;;;;24.80;22.20;;;;;;;10.12;100.00;97044.47;10330861;28;20242;-58
2022/06/05 02:12:38;;;;;;;30.20;23.43;;;;;;;10.23;100.00;97030.38;10332743;28;20597;-58
2022/06/05 02:17:39;;;;;;;25.47;22.87;;;;;;;10.20;100.00;97036.75;10330631;28;20300;-57
2022/06/05 02:22:48;;;;;;;27.67;23.13;;;;;;;10.12;100.00;97040.09;10331999;28;20279;-58
2022/06/05 02:27:48;;;;;;;26.47;23.70;;;;;;;10.10;100.00;97043.81;10330622;28;20272;-58
2022/06/05 02:33:14;;;;;;;27.70;24.90;;;;;;;10.07;100.00;97036.25;10331526;28;20252;-58
2022/06/05 02:38:28;;;;;;;27.77;24.80;;;;;;;10.09;100.00;97032.53;10330424;28;20577;-58
2022/06/05 02:49:23;;;;;;;29.50;26.03;;;;;;;10.12;100.00;97027.00;10330256;28;20589;-55
2022/06/05 02:54:26;;;;;;;27.93;24.70;;;;;;;10.14;100.00;97026.84;10329087;28;20612;-57
2022/06/05 02:59:27;;;;;;;27.90;25.00;;;;;;;10.10;100.00;97030.72;10329750;28;20694;-56
2022/06/05 03:04:28;;;;;;;26.23;22.43;;;;;;;10.13;100.00;97035.66;10350161;28;20547;-58
2022/06/05 03:09:28;;;;;;;25.20;22.77;;;;;;;10.16;100.00;97024.91;10370408;28;20245;-57
2022/06/05 03:14:29;;;;;;;28.00;22.67;;;;;;;10.05;100.00;97020.69;10370446;28;20201;-55
2022/06/05 03:19:29;;;;;;;25.67;23.07;;;;;;;10.04;100.00;97028.69;10370350;28;20759;-58
2022/06/05 03:24:29;;;;;;;24.50;20.47;;;;;;;10.04;100.00;97033.94;10369955;28;20638;-54
2022/06/05 03:29:30;;;;;;;23.87;21.43;;;;;;;9.96;100.00;97043.31;10369879;28;20589;-58
2022/06/05 03:34:30;;;;;;;23.30;20.80;;;;;;;9.94;100.00;97032.19;10369315;28;20727;-54
2022/06/05 03:39:31;;;;;;;24.50;21.47;;;;;;;10.00;100.00;97044.69;10369466;28;20635;-58
2022/06/05 03:44:36;;;;;;;22.60;20.20;;;;;;;10.05;100.00;97048.69;10369384;28;20259;-54
2022/06/05 03:49:36;;;;;;;22.53;20.10;;;;;;;10.04;100.00;97039.16;10369229;28;20331;-58
2022/06/05 03:54:38;;;;;;;24.37;21.73;;;;;;;10.04;100.00;97029.50;10369005;28;20669;-52
2022/06/05 03:59:39;;;;;;;22.97;20.67;;;;;;;10.16;100.00;97044.06;10368207;28;20204;-57
2022/06/05 04:04:39;;;;;;;20.40;18.40;;;;;;;10.17;100.00;97037.84;10368618;28;20220;-51
2022/06/05 04:09:39;;;;;;;21.47;19.30;;;;;;;10.29;100.00;97040.25;10368230;28;20233;-51
2022/06/05 04:14:40;;;;;;;24.37;17.30;;;;;;;10.28;100.00;97015.88;10368611;28;20194;-51
2022/06/05 04:19:41;;;;;;;20.90;18.77;;;;;;;10.46;100.00;96999.38;10368524;28;20594;-53
2022/06/05 04:24:41;;;;;;;24.23;17.97;;;;;;;10.71;100.00;96984.72;10368106;28;20227;-51
2022/06/05 04:29:41;;;;;;;18.33;16.43;;;;;;;10.83;100.00;96978.28;10367915;28;20356;-56
2022/06/05 04:34:42;;;;;;;19.73;17.63;;;;;;;10.94;100.00;96958.06;10367937;28;20186;-51
2022/06/05 04:39:42;;;;;;;18.37;16.57;;;;;;;11.20;100.00;96960.69;10367656;28;20862;-53
2022/06/05 04:44:42;;;;;;;17.42;15.80;;;;;;;11.47;100.00;96941.34;10367584;28;20298;-52
2022/06/05 04:49:43;;;;;;;18.17;15.60;;;;;;;11.68;100.00;96933.06;10366599;28;20209;-54
2022/06/05 04:54:43;;;;;;;15.00;13.50;;;;;;;11.99;100.00;96935.19;10367230;28;20228;-54
2022/06/05 04:59:44;;;;;;;13.55;12.25;;;;;;;12.20;100.00;96928.66;10366795;28;20267;-55
2022/06/05 05:04:47;;;;;;;13.40;12.00;;;;;;;12.46;100.00;96925.91;10366704;28;20251;-56
2022/06/05 05:09:47;;;;;;;13.20;11.90;;;;;;;12.84;100.00;96913.91;10378849;23;20237;-62
2022/06/05 05:14:48;;;;;;;12.85;11.60;;;;;;;12.91;100.00;96892.19;10366941;28;20553;-60
2022/06/05 05:19:48;;;;;;;14.00;11.60;;;;;;;13.16;100.00;96890.34;10366842;28;20292;-61
2022/06/05 05:24:48;;;;;;;12.35;10.75;;;;;;;13.67;100.00;96890.03;10366767;28;20235;-60
2022/06/05 05:29:50;;;;;;;13.27;9.88;;;;;;;14.04;100.00;96899.91;10366739;28;20220;-59
2022/06/05 05:34:51;;;;;;;11.50;10.30;;;;;;;14.31;100.00;96904.84;10366876;28;20178;-60
2022/06/05 05:45:11;;;;;;;10.35;9.35;;;;;;;15.28;100.00;96912.94;10366556;28;20257;-59
2022/06/05 05:50:15;;;;;;;11.77;8.13;;;;;;;16.07;100.00;96919.44;10366698;28;20300;-60
2022/06/05 05:55:17;;;;;;;9.27;7.90;;;;;;;16.80;100.00;96931.75;10366708;28;20181;-60
2022/06/05 06:00:19;;;;;;;8.32;7.45;;;;;;;17.31;100.00;96913.03;10370055;28;20532;-62
2022/06/05 06:05:19;;;;;;;9.10;6.93;;;;;;;17.97;100.00;96909.91;10373649;28;20992;-61
2022/06/05 06:10:19;;;;;;;12.73;6.32;;;;;;;18.18;100.00;96906.31;10373208;28;20283;-61
2022/06/05 06:15:20;;;;;;;7.53;4.90;;;;;;;18.57;100.00;96889.84;10373287;28;20189;-60
2022/06/05 06:20:20;;;;;;;5.60;5.07;;;;;;;18.91;89.78;96857.00;10373647;28;20332;-60
2022/06/05 06:25:20;;;;;;;6.85;4.75;;;;;;;19.61;84.01;96830.66;10372473;28;20232;-61
2022/06/05 06:30:21;;;;;;;6.55;4.22;;;;;;;20.33;82.42;96839.53;10372547;28;20217;-59
2022/06/05 06:35:21;;;;;;;7.80;4.15;;;;;;;21.19;76.62;96785.53;10372413;28;20217;-59
2022/06/05 06:40:21;;;;;;;6.43;4.50;;;;;;;20.76;74.06;96770.38;10372180;28;20279;-60
2022/06/05 06:45:22;;;;;;;5.43;4.53;;;;;;;21.04;75.71;96793.06;10371956;28;20236;-60
2022/06/05 06:50:22;;;;;;;5.35;4.82;;;;;;;21.89;71.25;96748.78;10371986;28;20217;-62
2022/06/05 06:55:23;;;;;;;5.25;4.22;;;;;;;22.35;69.38;96731.25;10371690;28;20186;-62
2022/06/05 07:00:23;;;;;;;4.68;4.18;;;;;;;22.99;66.07;96679.75;10371111;28;20619;-59
2022/06/05 07:05:24;;;;;;;4.82;4.43;;;;;;;21.99;66.79;96679.69;10371402;28;20563;-61
2022/06/05 07:10:24;;;;;;;5.10;4.43;;;;;;;22.42;69.36;96729.28;10370021;28;20735;-60
2022/06/05 07:15:26;;;;;;;5.28;4.00;;;;;;;22.72;67.88;96716.84;10371225;28;20189;-61
2022/06/05 07:20:26;;;;;;;3.95;3.55;;;;;;;23.72;60.73;96609.69;10370517;28;20221;-60
2022/06/05 07:25:27;;;;;;;4.55;3.90;;;;;;;22.83;64.65;96678.63;10370610;28;20904;-60
2022/06/05 07:30:28;;;;;;;4.35;3.80;;;;;;;23.03;63.50;96667.53;10370358;28;20218;-60
2022/06/05 07:35:28;;;;;;;6.72;3.97;;;;;;;23.34;61.39;96641.44;10370332;28;20648;-61
2022/06/05 07:40:28;;;;;;;5.38;3.80;;;;;;;23.76;61.63;96640.28;10370653;28;20614;-59
2022/06/05 07:45:29;;;;;;;5.10;4.15;;;;;;;23.94;62.08;96657.97;10369813;28;20367;-59
2022/06/05 07:50:29;;;;;;;6.57;4.13;;;;;;;23.20;62.23;96632.06;10370064;28;20275;-62
2022/06/05 07:55:30;;;;;;;4.03;3.72;;;;;;;23.71;61.00;96619.59;10369414;28;20263;-61
2022/06/05 08:00:31;;;;;;;3.92;3.53;;;;;;;24.38;58.34;96605.38;10368903;28;20216;-61
2022/06/05 08:05:32;;;;;;;4.00;3.60;;;;;;;22.69;60.63;96616.63;10369050;28;20217;-61
2022/06/05 08:10:33;;;;;;;3.72;3.42;;;;;;;22.79;63.44;96682.81;10368619;28;20312;-60
2022/06/05 08:15:33;;;;;;;6.35;3.60;;;;;;;24.28;55.97;96553.53;10369200;28;20311;-61
2022/06/05 08:20:33;;;;;;;3.55;2.97;;;;;;;24.49;55.60;96558.09;10343463;28;20222;-61
2022/06/05 08:25:34;;;;;;;6.47;3.33;;;;;;;24.19;55.87;96548.59;10328235;28;20294;-62
2022/06/05 08:30:35;;;;;;;3.75;3.42;;;;;;;24.67;56.11;96581.13;10327722;28;20226;-61
2022/06/05 08:35:35;;;;;;;3.97;3.10;;;;;;;23.82;54.72;96537.63;10327573;28;20205;-62
2022/06/05 08:46:02;;;;;;;2.92;2.60;;;;;;;24.51;54.46;96544.47;10326305;28;20218;-64
2022/06/05 08:51:23;;;;;;;2.97;2.70;;;;;;;24.78;52.61;96500.84;10327316;28;20752;-65
2022/06/05 08:56:33;;;;;;;3.20;2.90;;;;;;;24.76;51.06;96476.97;10325405;28;20194;-63
2022/06/05 09:01:41;;;;;;;4.22;3.40;;;;;;;25.13;51.96;96508.44;10325915;28;20214;-63
2022/06/05 09:06:44;;;;;;;3.80;3.50;;;;;;;23.70;55.05;96540.41;10326369;28;20222;-63
2022/06/05 09:11:51;;;;;;;5.18;3.42;;;;;;;24.54;52.17;96507.25;10325522;28;20724;-64
2022/06/05 09:16:54;;;;;;;3.38;3.08;;;;;;;23.31;55.05;96525.09;10326195;28;20209;-64
2022/06/05 09:22:03;;;;;;;4.40;4.00;;;;;;;22.47;56.44;96538.25;10325284;28;20217;-65
2022/06/05 09:27:23;;;;;;;3.65;3.25;;;;;;;24.36;54.36;96558.47;10326125;28;20722;-64
2022/06/05 09:32:51;;;;;;;3.95;3.65;;;;;;;23.06;55.21;96532.66;10325106;28;20217;-61
2022/06/05 09:38:18;;;;;;;5.07;4.35;;;;;;;23.41;56.01;96559.19;10334232;28;20212;-63
2022/06/05 09:43:34;;;;;;;4.38;3.97;;;;;;;23.63;55.50;96558.47;10334263;28;20225;-63
2022/06/05 09:48:49;;;;;;;4.40;4.05;;;;;;;24.69;54.22;96570.16;10332903;28;21015;-64
2022/06/05 09:53:59;;;;;;;6.13;4.53;;;;;;;25.01;53.26;96542.59;10334087;28;20212;-61
2022/06/05 09:59:21;;;;;;;6.30;4.22;;;;;;;24.07;54.71;96539.06;10333006;28;20696;-63
2022/06/05 10:04:22;;;;;;;5.75;5.07;;;;;;;24.13;54.83;96522.81;10331796;28;20217;-63
2022/06/05 10:09:24;;;;;;;5.82;4.65;;;;;;;25.48;52.77;96528.56;10331771;28;20678;-63
2022/06/05 10:14:51;;;;;;;5.40;4.47;;;;;;;26.51;51.97;96521.13;10331646;28;20190;-63
2022/06/05 10:19:55;;;;;;;4.88;4.35;;;;;;;25.52;52.10;96494.81;10331266;28;20229;-65
2022/06/05 10:25:27;;;;;;;5.93;4.45;;;;;;;25.57;51.80;96485.97;10332427;28;20316;-63
2022/06/05 10:30:33;;;;;;;8.63;4.95;;;;;;;25.46;53.66;96538.75;10311656;28;20893;-63
2022/06/05 10:35:45;;;;;;;6.20;4.95;;;;;;;25.79;51.81;96504.66;10330746;28;20282;-64
2022/06/05 10:40:53;;;;;;;5.70;4.30;;;;;;;26.01;50.55;96466.16;10330629;28;20237;-63
2022/06/05 10:46:07;;;;;;;5.15;4.03;;;;;;;28.95;46.75;96472.88;10329117;28;20661;-61
2022/06/05 10:51:32;;;;;;;4.80;4.13;;;;;;;26.35;49.86;96453.09;10331321;28;20771;-65
2022/06/05 10:56:41;;;;;;;5.13;4.45;;;;;;;25.60;50.32;96443.34;10330487;28;20659;-61
2022/06/05 11:02:23;;;;;;;6.68;4.63;;;;;;;23.93;54.90;96490.47;10331229;28;20697;-64
2022/06/05 11:07:36;;;;;;;5.75;4.20;;;;;;;25.31;51.19;96452.81;10329613;28;20213;-64
2022/06/05 11:18:38;;;;;;;5.60;4.20;;;;;;;25.68;49.42;96396.47;10343634;28;20206;-61
2022/06/05 11:23:40;;;;;;;12.20;3.90;;;;;;;26.33;48.30;96375.47;10325995;28;20292;-60
2022/06/05 11:29:02;;;;;;;6.20;4.32;;;;;;;25.67;49.13;96384.09;10287037;28;20587;-57
2022/06/05 11:34:27;;;;;;;4.90;3.88;;;;;;;25.57;49.57;96392.88;10284268;28;20222;-60
2022/06/05 11:39:34;;;;;;;5.78;3.72;;;;;;;25.76;51.17;96444.25;10320809;28;20677;-58
2022/06/05 11:44:53;;;;;;;6.13;3.75;;;;;;;25.43;49.32;96367.63;10288327;28;20247;-56
2022/06/05 11:50:02;;;;;;;5.35;3.40;;;;;;;26.96;48.30;96393.28;10288905;28;20576;-60
2022/06/05 11:55:09;;;;;;;9.15;3.72;;;;;;;25.96;48.51;96344.22;10319857;28;20195;-60
2022/06/05 12:00:20;;;;;;;6.47;3.22;;;;;;;24.71;50.05;96349.16;10286597;28;20246;-60
2022/06/05 12:05:43;;;;;;;4.80;3.88;;;;;;;24.67;49.72;96339.19;10287121;28;20245;-58
2022/06/05 12:11:01;;;;;;;4.90;3.38;;;;;;;26.04;47.58;96342.13;10281129;28;20677;-61
2022/06/05 12:16:05;;;;;;;4.45;3.00;;;;;;;26.63;43.01;96223.44;10285422;28;20736;-61
2022/06/05 12:21:12;;;;;;;5.78;3.38;;;;;;;27.48;43.22;96243.38;10284919;28;20253;-60
2022/06/05 12:26:22;;;;;;;3.60;2.65;;;;;;;27.10;42.34;96215.28;10311650;28;20227;-61
2022/06/05 12:31:32;;;;;;;6.82;3.47;;;;;;;27.31;43.75;96249.09;10246305;28;20223;-58
2022/06/05 12:36:46;;;;;;;3.65;2.83;;;;;;;27.01;42.26;96188.16;10246013;28;20544;-62
2022/06/05 12:42:14;;;;;;;4.75;3.03;;;;;;;25.75;45.61;96233.34;10247490;28;20714;-63
2022/06/05 12:47:34;;;;;;;3.20;2.78;;;;;;;26.68;45.17;96244.97;10245840;29;21119;-61
2022/06/05 12:52:40;;;;;;;4.25;2.70;;;;;;;27.94;43.35;96232.34;10245952;28;20222;-61
2022/06/05 12:58:07;;;;;;;2.60;2.40;;;;;;;26.58;43.38;96155.47;10247680;28;20214;-62
2022/06/05 13:03:36;;;;;;;4.40;2.80;;;;;;;25.94;45.07;96188.03;10247237;28;20317;-61
2022/06/05 13:08:44;;;;;;;3.50;2.58;;;;;;;26.65;43.86;96172.13;10248545;28;20258;-60
2022/06/05 13:14:15;;;;;;;4.35;2.67;;;;;;;26.99;43.66;96144.63;10246597;28;20245;-54
2022/06/05 13:19:40;;;;;;;5.00;2.83;;;;;;;25.85;44.84;96149.38;10246567;28;20617;-60
2022/06/05 13:24:50;;;;;;;3.25;2.70;;;;;;;25.31;45.55;96134.53;10245306;28;20231;-60
2022/06/05 13:30:15;;;;;;;2.70;2.50;;;;;;;25.18;45.52;96124.31;10245697;28;20278;-57
2022/06/05 13:35:25;;;;;;;5.78;3.20;;;;;;;25.87;45.61;96162.53;10246175;28;20199;-59
2022/06/05 13:40:40;;;;;;;3.03;2.40;;;;;;;25.12;45.85;96152.16;10244621;28;20246;-57
2022/06/05 13:45:51;;;;;;;4.00;2.85;;;;;;;25.13;45.78;96159.13;10245877;28;20215;-59
2022/06/05 13:51:21;;;;;;;4.18;2.30;;;;;;;25.04;47.02;96181.09;10244399;28;20709;-61
2022/06/05 13:56:29;;;;;;;2.65;2.45;;;;;;;24.50;46.35;96147.31;10243923;28;20227;-58
2022/06/05 14:01:57;;;;;;;4.05;2.60;;;;;;;25.50;47.61;96193.03;10244397;28;20301;-61
2022/06/05 14:07:03;;;;;;;3.53;2.60;;;;;;;26.12;45.08;96142.94;10244362;29;20609;-60
2022/06/05 14:12:05;;;;;;;3.05;2.47;;;;;;;25.70;44.90;96111.81;10244612;28;20243;-60
2022/06/05 14:17:08;;;;;;;2.55;2.30;;;;;;;26.28;45.06;96151.75;10245255;28;20562;-60
2022/06/05 14:22:20;;;;;;;2.63;2.42;;;;;;;26.57;44.39;96143.94;10249319;28;20314;-53
2022/06/05 14:27:34;;;;;;;2.67;2.33;;;;;;;25.26;45.65;96129.94;10250547;28;20230;-56
2022/06/05 14:32:38;;;;;;;4.07;2.70;;;;;;;25.90;47.31;96200.34;10250771;28;20211;-59
2022/06/05 14:37:42;;;;;;;3.90;2.40;;;;;;;26.85;44.84;96160.53;10250559;29;20294;-55
2022/06/05 14:42:48;;;;;;;3.58;2.53;;;;;;;26.35;43.83;96103.97;10250384;28;20716;-59
2022/06/05 14:48:18;;;;;;;3.20;2.40;;;;;;;25.79;44.38;96091.41;10251457;28;20230;-59
2022/06/05 14:53:39;;;;;;;2.97;2.40;;;;;;;26.55;44.71;96135.31;10249957;28;20223;-62
2022/06/05 14:58:50;;;;;;;3.35;2.65;;;;;;;26.83;43.58;96098.16;10250919;28;20203;-61
2022/06/05 15:04:03;;;;;;;2.95;2.63;;;;;;;26.50;43.48;96081.63;10250731;28;20262;-58
2022/06/05 15:09:15;;;;;;;3.47;3.17;;;;;;;26.19;45.22;96118.47;10250685;28;20184;-60
2022/06/05 15:14:39;;;;;;;3.50;2.70;;;;;;;26.52;43.91;96101.78;10249960;28;20251;-58
2022/06/05 15:19:40;;;;;;;3.15;2.75;;;;;;;27.20;41.73;96060.06;10248899;29;20187;-55
2022/06/05 15:24:54;;;;;;;4.13;2.30;;;;;;;28.54;40.36;96066.19;10249973;28;20233;-55
2022/06/05 15:30:34;;;;;;;3.33;2.40;;;;;;;27.86;42.05;96089.47;10249297;28;20530;-61
2022/06/05 15:35:40;;;;;;;2.70;2.50;;;;;;;26.04;45.42;96103.22;10268775;28;21046;-60
2022/06/05 15:41:25;;;;;;;2.70;2.50;;;;;;;26.68;44.18;96094.47;10288382;28;20222;-60
2022/06/05 15:46:29;;;;;;;2.60;2.40;;;;;;;26.30;43.95;96072.56;10287698;28;20223;-61
2022/06/05 15:51:38;;;;;;;5.45;3.90;;;;;;;26.93;44.24;96108.88;10287042;28;20298;-60
2022/06/05 15:58:18;;;;;;;3.53;2.83;;;;;;;26.79;43.64;96070.25;10285220;28;20814;-60
2022/06/05 16:02:40;;;;;;;3.35;2.58;;;;;;;25.68;46.34;96106.72;10266861;28;20226;-60
2022/06/05 16:07:42;;;;;;;5.95;2.90;;;;;;;24.86;46.46;96075.16;10286949;28;20425;-61
2022/06/05 16:12:43;;;;;;;6.13;2.90;;;;;;;24.35;46.65;96066.88;10287048;28;20697;-61
2022/06/05 16:18:07;;;;;;;4.05;2.97;;;;;;;24.65;47.15;96094.91;10287238;28;20190;-61
2022/06/05 16:23:16;;;;;;;3.45;2.70;;;;;;;24.60;47.76;96101.06;10287250;28;20227;-60
2022/06/05 16:28:31;;;;;;;3.38;2.70;;;;;;;24.59;47.62;96101.31;10287038;28;20207;-61
2022/06/05 16:33:35;;;;;;;2.53;2.33;;;;;;;24.72;47.41;96096.28;10286466;28;20249;-59
2022/06/05 16:38:47;;;;;;;4.05;2.47;;;;;;;25.26;47.36;96116.53;10286751;28;20194;-59
2022/06/05 16:43:59;;;;;;;2.67;2.45;;;;;;;25.24;46.48;96083.03;10284315;28;20318;-61
2022/06/05 16:49:02;;;;;;;2.70;2.50;;;;;;;25.01;47.12;96086.97;10285045;28;20183;-61
2022/06/05 16:54:06;;;;;;;2.88;2.65;;;;;;;25.25;47.05;96096.19;10286023;28;20210;-61
2022/06/05 16:59:26;;;;;;;5.63;2.58;;;;;;;24.98;46.09;96042.78;10285963;28;20720;-61
2022/06/05 17:04:29;;;;;;;2.58;2.38;;;;;;;24.63;47.81;96078.31;10286124;28;20230;-61
2022/06/05 17:09:31;;;;;;;7.45;2.70;;;;;;;24.40;48.41;96091.03;10286244;28;20195;-60
2022/06/05 17:14:46;;;;;;;3.15;2.55;;;;;;;24.45;48.30;96087.56;10341464;23;20339;-61
2022/06/05 17:19:59;;;;;;;2.90;2.70;;;;;;;24.22;50.12;96124.38;10329212;28;20204;-61
2022/06/05 17:25:14;;;;;;;2.50;2.30;;;;;;;23.94;52.22;96146.94;10329011;28;20287;-60
2022/06/05 17:30:19;;;;;;;3.25;2.72;;;;;;;23.96;51.78;96142.94;10328389;28;20201;-59
2022/06/05 17:35:29;;;;;;;2.80;2.60;;;;;;;23.83;50.33;96109.38;10328381;28;20705;-58
2022/06/05 17:40:44;;;;;;;3.10;2.83;;;;;;;24.00;50.94;96121.84;10321575;28;20566;-59
2022/06/05 17:45:58;;;;;;;3.10;2.70;;;;;;;23.71;49.89;96100.72;10328358;28;20225;-61
2022/06/05 17:51:17;;;;;;;3.88;2.47;;;;;;;23.86;52.88;96189.16;10328489;28;20221;-61
2022/06/05 17:56:31;;;;;;;5.10;2.67;;;;;;;23.77;52.71;96181.81;10331906;28;20217;-61
2022/06/05 18:01:37;;;;;;;5.93;2.55;;;;;;;23.46;54.01;96200.22;10335852;28;20292;-61
2022/06/05 18:06:41;;;;;;;4.95;2.60;;;;;;;23.44;54.71;96221.84;10336085;28;20312;-61
2022/06/05 18:11:47;;;;;;;3.72;3.17;;;;;;;23.34;55.54;96227.09;10335238;28;20241;-61
2022/06/05 18:16:48;;;;;;;2.97;2.67;;;;;;;23.27;54.52;96207.75;10335110;28;20222;-61
2022/06/05 18:21:52;;;;;;;3.38;3.08;;;;;;;23.02;57.83;96283.03;10333827;28;20696;-61
2022/06/05 18:27:05;;;;;;;3.30;3.00;;;;;;;22.94;60.13;96335.00;10333148;28;20253;-60
2022/06/05 18:32:37;;;;;;;4.75;3.45;;;;;;;22.09;61.14;96324.28;10334799;28;20700;-59
2022/06/05 18:43:05;;;;;;;3.38;3.08;;;;;;;21.28;65.75;96382.88;10330990;28;20209;-57
2022/06/05 18:48:11;;;;;;;5.43;3.97;;;;;;;21.48;66.82;96401.97;10329607;28;20607;-60
2022/06/05 18:53:21;;;;;;;3.47;3.20;;;;;;;20.83;67.77;96390.41;10329818;28;20269;-60
2022/06/05 18:58:29;;;;;;;7.97;3.78;;;;;;;20.80;70.19;96419.34;10330701;28;20221;-60
2022/06/05 19:03:33;;;;;;;3.88;3.55;;;;;;;20.54;71.64;96415.19;10330424;28;20226;-60
2022/06/05 19:08:37;;;;;;;6.18;3.53;;;;;;;20.24;73.59;96421.31;10329124;28;20660;-59
2022/06/05 19:13:45;;;;;;;5.80;3.85;;;;;;;19.61;76.04;96418.75;10330273;28;20716;-59
2022/06/05 19:18:50;;;;;;;4.90;3.85;;;;;;;19.51;77.42;96418.47;10328617;28;20189;-59
2022/06/05 19:23:56;;;;;;;4.55;4.13;;;;;;;19.20;77.88;96422.88;10328373;28;20218;-60
2022/06/05 19:28:59;;;;;;;11.85;8.55;;;;;;;19.12;79.54;96424.97;10329631;28;20309;-58
2022/06/05 19:34:15;;;;;;;6.03;4.10;;;;;;;18.66;81.93;96419.78;10327773;28;20214;-60
2022/06/05 19:39:33;;;;;;;4.45;4.15;;;;;;;18.76;80.91;96419.31;10329022;28;20193;-61
2022/06/05 19:44:35;;;;;;;4.13;3.72;;;;;;;18.66;81.75;96425.06;10329010;28;20272;-61
2022/06/05 19:49:43;;;;;;;6.57;3.90;;;;;;;18.36;82.74;96424.84;10328725;28;20190;-61
2022/06/05 19:54:44;;;;;;;4.20;3.85;;;;;;;17.98;84.07;96423.84;10328949;28;20213;-61
2022/06/05 20:00:10;;;;;;;4.47;4.05;;;;;;;17.98;86.70;96423.84;10327654;28;20193;-60
2022/06/05 20:05:30;;;;;;;6.43;3.92;;;;;;;17.89;86.27;96434.91;10328618;28;20367;-60
2022/06/05 20:10:58;;;;;;;6.05;4.00;;;;;;;18.25;84.55;96410.44;10328163;28;20233;-56
2022/06/05 20:16:10;;;;;;;7.43;3.97;;;;;;;17.95;87.04;96420.81;10327288;28;20197;-56
2022/06/05 20:21:21;;;;;;;6.43;5.70;;;;;;;18.05;86.92;96415.03;10326283;28;20726;-54
2022/06/05 20:26:30;;;;;;;124.15;81.05;;;;;;;18.32;87.25;96399.81;10326772;28;20249;-56
2022/06/05 20:31:49;;;;;;;7.18;5.07;;;;;;;18.34;88.49;96408.34;10327677;28;20236;-54
2022/06/05 20:36:54;;;;;;;6.28;5.63;;;;;;;18.40;83.25;96380.19;10326877;28;20194;-56
2022/06/05 20:41:56;;;;;;;6.13;4.82;;;;;;;18.44;85.73;96395.44;10325855;28;20217;-59
2022/06/05 20:47:06;;;;;;;6.38;5.13;;;;;;;18.50;87.21;96386.63;10325985;28;20225;-59
2022/06/05 20:52:11;;;;;;;5.20;4.60;;;;;;;18.50;86.41;96383.97;10325605;28;20210;-59
2022/06/05 20:57:17;;;;;;;4.60;4.20;;;;;;;18.57;86.47;96378.63;10324651;28;20213;-58
2022/06/05 21:07:40;;;;;;;4.75;4.35;;;;;;;18.78;78.65;96318.25;10286520;28;20261;-53
2022/06/05 21:18:02;;;;;;;5.30;4.20;;;;;;;19.53;71.78;96261.50;10286059;28;20756;-54
2022/06/05 21:23:04;;;;;;;4.43;4.03;;;;;;;19.99;68.03;96248.63;10301299;28;20249;-57
2022/06/05 21:28:14;;;;;;;7.70;4.57;;;;;;;20.15;66.12;96226.66;10285914;28;20245;-54
2022/06/05 21:33:14;;;;;;;5.05;4.05;;;;;;;20.31;65.29;96215.34;10292360;28;20229;-54
2022/06/05 21:38:22;;;;;;;5.25;4.28;;;;;;;20.35;65.18;96223.69;10293829;28;20195;-56
2022/06/05 21:43:26;;;;;;;5.15;4.32;;;;;;;20.49;64.48;96221.63;10293209;28;20227;-54
2022/06/05 21:48:32;;;;;;;4.50;4.05;;;;;;;20.41;64.11;96216.63;10293554;28;20290;-54
2022/06/05 21:53:39;;;;;;;6.43;4.32;;;;;;;20.38;64.36;96239.19;10293602;28;20686;-55
2022/06/05 21:58:39;;;;;;;6.80;4.22;;;;;;;20.43;64.09;96233.19;10308372;28;20707;-58
2022/06/05 22:03:41;;;;;;;6.40;4.80;;;;;;;20.53;62.64;96213.97;10293090;28;20222;-56
2022/06/05 22:08:41;;;;;;;8.90;4.82;;;;;;;20.25;64.25;96248.19;10293025;28;20202;-57
2022/06/05 22:13:42;;;;;;;6.78;4.85;;;;;;;20.42;63.34;96239.53;10292687;28;20721;-58
2022/06/05 22:18:43;;;;;;;7.95;4.60;;;;;;;20.38;63.37;96246.34;10293565;28;20195;-60
2022/06/05 22:23:43;;;;;;;6.32;4.80;;;;;;;20.32;63.75;96264.03;10292464;28;20224;-59
2022/06/05 22:28:44;;;;;;;7.18;4.68;;;;;;;20.24;64.25;96272.38;10292267;28;20673;-60
2022/06/05 22:33:45;;;;;;;4.63;4.22;;;;;;;20.20;64.70;96285.31;10292266;28;20559;-59
2022/06/05 22:38:46;;;;;;;5.32;4.68;;;;;;;19.98;65.42;96294.84;10291804;28;20634;-60
2022/06/05 22:43:46;;;;;;;8.20;4.78;;;;;;;19.92;65.90;96297.38;10291608;28;20317;-59
2022/06/05 22:48:47;;;;;;;5.00;4.50;;;;;;;19.76;66.48;96319.25;10291798;28;20692;-60
2022/06/05 22:53:48;;;;;;;7.15;4.63;;;;;;;19.69;66.94;96326.47;10291267;28;20705;-54
2022/06/05 22:58:49;;;;;;;5.32;4.82;;;;;;;19.55;67.43;96317.88;10291353;28;20735;-57
2022/06/05 23:03:49;;;;;;;5.45;4.63;;;;;;;19.61;67.46;96316.97;10291208;28;20330;-58
2022/06/05 23:08:50;;;;;;;9.48;4.65;;;;;;;19.40;68.77;96334.19;10291195;28;20273;-58
2022/06/05 23:13:53;;;;;;;5.03;4.63;;;;;;;19.21;69.63;96334.19;10324091;23;20361;-58
2022/06/05 23:24:13;;;;;;;5.90;5.10;;;;;;;18.81;72.48;96363.72;10330023;28;20594;-57
2022/06/05 23:29:13;;;;;;;7.72;5.32;;;;;;;18.62;75.30;96396.53;10330043;28;20218;-58
2022/06/05 23:34:18;;;;;;;9.75;5.40;;;;;;;18.50;77.30;96401.75;10329136;28;20225;-57
2022/06/05 23:39:19;;;;;;;7.40;5.72;;;;;;;18.12;79.61;96398.06;10329434;28;20202;-55
2022/06/05 23:44:20;;;;;;;7.20;5.95;;;;;;;18.03;80.11;96396.69;10328998;28;20876;-51
2022/06/05 23:49:22;;;;;;;9.65;6.03;;;;;;;17.81;81.35;96406.75;10328947;28;20193;-57
2022/06/05 23:54:22;;;;;;;6.65;5.72;;;;;;;17.67;83.37;96411.25;10328109;28;20217;-53
2022/06/05 23:59:23;;;;;;;6.78;5.93;;;;;;;17.68;86.89;96418.19;10328801;28;20194;-54
